createdAt,value
2022-09-24T00:04:27.784Z,68.66
2022-09-24T00:14:29.971Z,64.90
2022-09-24T00:24:50.573Z,51.41
2022-09-24T00:34:53.377Z,51.19
2022-09-24T00:44:55.919Z,55.35
2022-09-24T00:54:57.784Z,72.29
2022-09-24T01:05:00.052Z,68.95
2022-09-24T01:15:08.426Z,63.13
2022-09-24T01:25:22.946Z,49.91
2022-09-24T01:35:28.866Z,50.31
2022-09-24T01:45:32.159Z,53.61
2022-09-24T01:55:38.599Z,56.76
2022-09-24T02:05:47.158Z,74.79
2022-09-24T02:15:51.146Z,69.96
2022-09-24T02:25:58.724Z,64.14
2022-09-24T02:36:00.514Z,49.81
2022-09-24T02:46:02.627Z,50.37
2022-09-24T02:56:04.634Z,53.80
2022-09-24T03:06:06.611Z,56.64
2022-09-24T03:16:08.403Z,74.92
2022-09-24T03:26:10.628Z,70.43
2022-09-24T03:36:16.905Z,64.27
2022-09-24T03:46:19.528Z,50.35
2022-09-24T03:56:21.389Z,50.16
2022-09-24T04:06:25.956Z,53.08
2022-09-24T04:16:28.076Z,55.53
2022-09-24T04:26:29.915Z,74.34
2022-09-24T04:36:31.675Z,69.63
2022-09-24T04:46:34.558Z,63.55
2022-09-24T04:56:36.521Z,49.87
2022-09-24T05:06:38.167Z,51.11
2022-09-24T05:16:40.012Z,54.18
2022-09-24T05:37:19.754Z,63.72
2022-09-24T05:47:21.505Z,49.32
2022-09-24T05:57:23.387Z,52.20
2022-09-24T06:07:25.178Z,57.79
2022-09-24T06:17:27.336Z,65.41
2022-09-24T06:27:29.116Z,52.46
2022-09-24T06:37:30.791Z,51.77
2022-09-24T06:47:32.492Z,53.84
2022-09-24T06:57:34.291Z,56.07
2022-09-24T07:07:37.783Z,56.20
2022-09-24T07:17:39.531Z,55.60
2022-09-24T07:27:41.350Z,57.33
2022-09-24T07:37:43.113Z,59.84
2022-09-24T07:47:44.871Z,58.57
2022-09-24T07:57:48.033Z,53.40
2022-09-24T08:07:53.614Z,51.12
2022-09-24T08:18:00.494Z,52.09
2022-09-24T08:28:03.294Z,51.11
2022-09-24T08:38:05.027Z,50.65
2022-09-24T08:48:15.437Z,50.47
2022-09-24T08:58:17.233Z,46.70
2022-09-24T09:08:50.050Z,45.49
2022-09-24T09:18:48.532Z,45.50
2022-09-24T09:28:50.902Z,45.39
2022-09-24T09:39:16.030Z,45.75
2022-09-24T09:49:18.090Z,44.20
2022-09-24T09:59:25.713Z,44.64
2022-09-24T10:09:29.232Z,45.15
2022-09-24T10:19:32.888Z,46.29
2022-09-24T10:29:53.155Z,46.74
2022-09-24T10:40:02.234Z,46.42
2022-09-24T10:50:10.554Z,46.88
2022-09-24T11:00:20.263Z,47.06
2022-09-24T11:10:28.111Z,44.71
2022-09-24T11:20:37.760Z,45.06
2022-09-24T11:30:58.772Z,45.33
2022-09-24T11:41:12.841Z,44.96
2022-09-24T11:51:21.032Z,45.91
2022-09-24T12:01:25.286Z,46.27
2022-09-24T12:11:33.284Z,47.92
2022-09-24T12:21:38.649Z,48.19
2022-09-24T12:32:14.052Z,49.00
2022-09-24T12:42:17.504Z,49.49
2022-09-24T12:52:24.482Z,49.21
2022-09-24T13:02:28.276Z,49.05
2022-09-24T13:12:33.293Z,50.07
2022-09-24T13:22:36.745Z,49.94
2022-09-24T13:32:59.208Z,49.21
2022-09-24T13:43:23.970Z,50.70
2022-09-24T13:53:25.689Z,50.74
2022-09-24T14:03:34.803Z,51.35
2022-09-24T14:13:45.925Z,50.16
2022-09-24T14:23:58.764Z,52.05
2022-09-24T14:34:00.603Z,51.79
2022-09-24T14:44:05.312Z,50.28
2022-09-24T14:54:21.680Z,50.22
2022-09-24T15:04:27.565Z,50.21
2022-09-24T15:14:33.091Z,50.55
2022-09-24T15:24:34.865Z,51.16
2022-09-24T15:34:37.964Z,52.20
2022-09-24T15:44:40.096Z,54.95
2022-09-24T15:54:42.038Z,57.22
2022-09-24T16:04:44.200Z,59.44
2022-09-24T16:14:46.698Z,77.84
2022-09-24T16:24:48.486Z,72.42
2022-09-24T16:34:50.429Z,55.59
2022-09-24T16:44:52.698Z,53.13
2022-09-24T16:54:55.969Z,55.13
2022-09-24T17:04:59.791Z,73.32
2022-09-24T17:15:03.543Z,68.90
2022-09-24T17:25:06.188Z,54.17
2022-09-24T17:35:08.642Z,52.67
2022-09-24T17:45:10.680Z,55.70
2022-09-24T17:55:12.584Z,71.37
2022-09-24T18:05:14.629Z,68.79
2022-09-24T18:15:16.534Z,63.63
2022-09-24T18:25:18.847Z,52.10
2022-09-24T18:35:20.800Z,52.59
2022-09-24T18:45:24.350Z,54.95
2022-09-24T18:55:26.043Z,72.10
2022-09-24T19:05:28.934Z,69.87
2022-09-24T19:15:31.227Z,63.44
2022-09-24T19:25:34.176Z,51.45
2022-09-24T19:35:36.870Z,51.66
2022-09-24T19:45:38.880Z,54.81
2022-09-24T19:55:41.792Z,71.57
2022-09-24T20:05:45.433Z,67.63
2022-09-24T20:15:47.375Z,62.31
2022-09-24T20:26:11.424Z,51.49
2022-09-24T20:36:16.504Z,51.63
2022-09-24T20:46:22.169Z,55.21
2022-09-24T20:56:24.282Z,70.38
2022-09-24T21:06:26.304Z,66.88
2022-09-24T21:16:30.064Z,62.70
2022-09-24T21:26:33.472Z,52.07
2022-09-24T21:36:42.905Z,52.47
2022-09-24T21:46:46.375Z,55.70
2022-09-24T21:56:48.487Z,71.72
2022-09-24T22:06:51.374Z,67.27
2022-09-24T22:16:53.201Z,62.11
2022-09-24T22:26:55.093Z,51.67
2022-09-24T22:36:57.687Z,51.75
2022-09-24T22:46:59.617Z,54.89
2022-09-24T22:57:01.355Z,69.97
2022-09-24T23:07:03.277Z,66.81
2022-09-24T23:17:05.022Z,62.47
2022-09-24T23:27:06.801Z,51.81
2022-09-24T23:37:10.860Z,52.27
2022-09-24T23:47:12.375Z,54.92
2022-09-24T23:57:14.028Z,55.22
